sensor_id;sensor_type;location;lat;lon;timestamp;P1;durP1;ratioP1;P2;durP2;ratioP2
35380;SDS011;21486;51.916;8.378;2023-04-06T00:00:58;11.95;;;6.65;;
35380;SDS011;21486;51.916;8.378;2023-04-06T00:03:24;12.27;;;6.75;;
35380;SDS011;21486;51.916;8.378;2023-04-06T00:05:50;9.90;;;6.47;;
35380;SDS011;21486;51.916;8.378;2023-04-06T00:08:16;16.97;;;6.43;;
35380;SDS011;21486;51.916;8.378;2023-04-06T00:10:42;10.23;;;7.20;;
35380;SDS011;21486;51.916;8.378;2023-04-06T00:13:07;11.43;;;6.77;;
35380;SDS011;21486;51.916;8.378;2023-04-06T00:15:33;11.83;;;6.93;;
35380;SDS011;21486;51.916;8.378;2023-04-06T00:17:59;14.65;;;7.25;;
35380;SDS011;21486;51.916;8.378;2023-04-06T00:20:25;10.57;;;7.20;;
35380;SDS011;21486;51.916;8.378;2023-04-06T00:22:50;14.07;;;7.50;;
35380;SDS011;21486;51.916;8.378;2023-04-06T00:25:16;12.10;;;6.82;;
35380;SDS011;21486;51.916;8.378;2023-04-06T00:27:42;11.70;;;7.55;;
35380;SDS011;21486;51.916;8.378;2023-04-06T00:33:01;12.00;;;7.10;;
35380;SDS011;21486;51.916;8.378;2023-04-06T00:35:27;14.50;;;7.77;;
35380;SDS011;21486;51.916;8.378;2023-04-06T00:37:52;12.37;;;7.03;;
35380;SDS011;21486;51.916;8.378;2023-04-06T00:40:18;9.97;;;6.70;;
35380;SDS011;21486;51.916;8.378;2023-04-06T00:42:44;11.13;;;7.38;;
35380;SDS011;21486;51.916;8.378;2023-04-06T00:45:10;11.32;;;7.60;;
35380;SDS011;21486;51.916;8.378;2023-04-06T00:47:35;11.45;;;7.63;;
35380;SDS011;21486;51.916;8.378;2023-04-06T00:50:01;12.98;;;7.30;;
35380;SDS011;21486;51.916;8.378;2023-04-06T00:52:27;13.13;;;7.90;;
35380;SDS011;21486;51.916;8.378;2023-04-06T00:54:53;13.55;;;7.43;;
35380;SDS011;21486;51.916;8.378;2023-04-06T00:57:18;13.97;;;7.27;;
35380;SDS011;21486;51.916;8.378;2023-04-06T00:59:44;12.40;;;7.65;;
35380;SDS011;21486;51.916;8.378;2023-04-06T01:02:10;13.63;;;7.78;;
35380;SDS011;21486;51.916;8.378;2023-04-06T01:04:36;12.63;;;7.60;;
35380;SDS011;21486;51.916;8.378;2023-04-06T01:07:02;12.37;;;7.33;;
35380;SDS011;21486;51.916;8.378;2023-04-06T01:09:28;12.47;;;7.63;;
35380;SDS011;21486;51.916;8.378;2023-04-06T01:11:57;16.38;;;8.20;;
35380;SDS011;21486;51.916;8.378;2023-04-06T01:14:23;13.57;;;8.27;;
35380;SDS011;21486;51.916;8.378;2023-04-06T01:16:50;14.63;;;8.02;;
35380;SDS011;21486;51.916;8.378;2023-04-06T01:19:16;14.20;;;7.95;;
35380;SDS011;21486;51.916;8.378;2023-04-06T01:21:42;14.23;;;8.57;;
35380;SDS011;21486;51.916;8.378;2023-04-06T01:24:08;15.60;;;8.33;;
35380;SDS011;21486;51.916;8.378;2023-04-06T01:26:34;14.40;;;8.23;;
35380;SDS011;21486;51.916;8.378;2023-04-06T01:29:01;12.88;;;8.27;;
35380;SDS011;21486;51.916;8.378;2023-04-06T01:31:27;12.73;;;7.85;;
35380;SDS011;21486;51.916;8.378;2023-04-06T01:33:53;12.00;;;8.00;;
35380;SDS011;21486;51.916;8.378;2023-04-06T01:36:19;12.40;;;8.45;;
35380;SDS011;21486;51.916;8.378;2023-04-06T01:38:45;14.25;;;7.95;;
35380;SDS011;21486;51.916;8.378;2023-04-06T01:41:11;14.93;;;7.93;;
35380;SDS011;21486;51.916;8.378;2023-04-06T01:43:36;12.57;;;8.00;;
35380;SDS011;21486;51.916;8.378;2023-04-06T01:46:02;14.10;;;8.40;;
35380;SDS011;21486;51.916;8.378;2023-04-06T01:48:28;14.87;;;9.13;;
35380;SDS011;21486;51.916;8.378;2023-04-06T01:50:53;13.10;;;8.17;;
35380;SDS011;21486;51.916;8.378;2023-04-06T01:53:20;14.27;;;8.75;;
35380;SDS011;21486;51.916;8.378;2023-04-06T01:55:45;13.67;;;8.80;;
35380;SDS011;21486;51.916;8.378;2023-04-06T01:58:11;17.23;;;9.43;;
35380;SDS011;21486;51.916;8.378;2023-04-06T02:00:37;17.57;;;9.40;;
35380;SDS011;21486;51.916;8.378;2023-04-06T02:03:03;17.92;;;9.48;;
35380;SDS011;21486;51.916;8.378;2023-04-06T02:05:29;14.25;;;9.52;;
35380;SDS011;21486;51.916;8.378;2023-04-06T02:07:56;19.47;;;10.13;;
35380;SDS011;21486;51.916;8.378;2023-04-06T02:10:22;17.58;;;9.77;;
35380;SDS011;21486;51.916;8.378;2023-04-06T02:12:48;16.85;;;9.95;;
35380;SDS011;21486;51.916;8.378;2023-04-06T02:15:14;18.58;;;9.98;;
35380;SDS011;21486;51.916;8.378;2023-04-06T02:17:41;18.58;;;9.75;;
35380;SDS011;21486;51.916;8.378;2023-04-06T02:20:07;17.80;;;9.83;;
35380;SDS011;21486;51.916;8.378;2023-04-06T02:22:34;15.75;;;10.48;;
35380;SDS011;21486;51.916;8.378;2023-04-06T02:25:00;14.03;;;9.67;;
35380;SDS011;21486;51.916;8.378;2023-04-06T02:27:26;14.60;;;9.40;;
35380;SDS011;21486;51.916;8.378;2023-04-06T02:29:51;16.73;;;9.20;;
35380;SDS011;21486;51.916;8.378;2023-04-06T02:32:17;16.90;;;9.55;;
35380;SDS011;21486;51.916;8.378;2023-04-06T02:34:43;13.50;;;9.23;;
35380;SDS011;21486;51.916;8.378;2023-04-06T02:37:08;14.27;;;9.10;;
35380;SDS011;21486;51.916;8.378;2023-04-06T02:39:34;13.73;;;9.20;;
35380;SDS011;21486;51.916;8.378;2023-04-06T02:41:59;13.90;;;9.25;;
35380;SDS011;21486;51.916;8.378;2023-04-06T02:44:25;16.50;;;9.70;;
35380;SDS011;21486;51.916;8.378;2023-04-06T02:46:51;13.98;;;9.55;;
35380;SDS011;21486;51.916;8.378;2023-04-06T02:49:16;17.67;;;10.63;;
35380;SDS011;21486;51.916;8.378;2023-04-06T02:51:42;15.50;;;10.40;;
35380;SDS011;21486;51.916;8.378;2023-04-06T02:54:07;16.20;;;10.33;;
35380;SDS011;21486;51.916;8.378;2023-04-06T02:56:33;16.30;;;10.33;;
35380;SDS011;21486;51.916;8.378;2023-04-06T02:58:58;16.60;;;10.93;;
35380;SDS011;21486;51.916;8.378;2023-04-06T03:01:24;23.03;;;11.43;;
35380;SDS011;21486;51.916;8.378;2023-04-06T03:03:50;20.08;;;11.23;;
35380;SDS011;21486;51.916;8.378;2023-04-06T03:06:16;20.13;;;12.32;;
35380;SDS011;21486;51.916;8.378;2023-04-06T03:08:41;18.45;;;11.52;;
35380;SDS011;21486;51.916;8.378;2023-04-06T03:11:07;17.17;;;11.38;;
35380;SDS011;21486;51.916;8.378;2023-04-06T03:13:32;14.68;;;10.32;;
35380;SDS011;21486;51.916;8.378;2023-04-06T03:15:58;16.40;;;10.48;;
35380;SDS011;21486;51.916;8.378;2023-04-06T03:18:24;18.60;;;10.45;;
35380;SDS011;21486;51.916;8.378;2023-04-06T03:20:50;16.92;;;10.25;;
35380;SDS011;21486;51.916;8.378;2023-04-06T03:23:18;17.83;;;10.48;;
35380;SDS011;21486;51.916;8.378;2023-04-06T03:25:46;18.35;;;9.98;;
35380;SDS011;21486;51.916;8.378;2023-04-06T03:28:11;19.20;;;10.15;;
35380;SDS011;21486;51.916;8.378;2023-04-06T03:30:37;19.35;;;10.95;;
35380;SDS011;21486;51.916;8.378;2023-04-06T03:33:03;21.38;;;10.38;;
35380;SDS011;21486;51.916;8.378;2023-04-06T03:35:28;19.30;;;10.43;;
35380;SDS011;21486;51.916;8.378;2023-04-06T03:37:54;18.42;;;10.20;;
35380;SDS011;21486;51.916;8.378;2023-04-06T03:40:20;19.90;;;10.55;;
35380;SDS011;21486;51.916;8.378;2023-04-06T03:42:45;18.17;;;9.43;;
35380;SDS011;21486;51.916;8.378;2023-04-06T03:45:11;18.50;;;10.37;;
35380;SDS011;21486;51.916;8.378;2023-04-06T03:47:39;24.42;;;10.07;;
35380;SDS011;21486;51.916;8.378;2023-04-06T03:50:05;26.50;;;10.47;;
35380;SDS011;21486;51.916;8.378;2023-04-06T03:52:31;19.27;;;9.20;;
35380;SDS011;21486;51.916;8.378;2023-04-06T03:54:56;16.77;;;9.80;;
35380;SDS011;21486;51.916;8.378;2023-04-06T03:57:22;21.90;;;9.48;;
35380;SDS011;21486;51.916;8.378;2023-04-06T03:59:48;21.35;;;10.32;;
35380;SDS011;21486;51.916;8.378;2023-04-06T04:02:13;21.75;;;10.07;;
35380;SDS011;21486;51.916;8.378;2023-04-06T04:04:39;19.83;;;9.88;;
35380;SDS011;21486;51.916;8.378;2023-04-06T04:07:05;17.43;;;10.23;;
35380;SDS011;21486;51.916;8.378;2023-04-06T04:09:31;24.37;;;10.47;;
35380;SDS011;21486;51.916;8.378;2023-04-06T04:11:56;18.07;;;9.67;;
35380;SDS011;21486;51.916;8.378;2023-04-06T04:14:22;15.90;;;9.80;;
35380;SDS011;21486;51.916;8.378;2023-04-06T04:16:48;18.58;;;9.77;;
35380;SDS011;21486;51.916;8.378;2023-04-06T04:19:13;17.20;;;9.68;;
35380;SDS011;21486;51.916;8.378;2023-04-06T04:21:46;18.17;;;10.00;;
35380;SDS011;21486;51.916;8.378;2023-04-06T04:24:14;17.67;;;10.27;;
35380;SDS011;21486;51.916;8.378;2023-04-06T04:26:40;18.90;;;10.30;;
35380;SDS011;21486;51.916;8.378;2023-04-06T04:29:06;18.17;;;10.00;;
35380;SDS011;21486;51.916;8.378;2023-04-06T04:31:32;16.73;;;9.95;;
35380;SDS011;21486;51.916;8.378;2023-04-06T04:33:58;19.17;;;10.80;;
35380;SDS011;21486;51.916;8.378;2023-04-06T04:36:25;16.65;;;10.68;;
35380;SDS011;21486;51.916;8.378;2023-04-06T04:38:51;18.80;;;10.60;;
35380;SDS011;21486;51.916;8.378;2023-04-06T04:41:17;24.20;;;10.90;;
35380;SDS011;21486;51.916;8.378;2023-04-06T04:43:43;20.52;;;10.65;;
35380;SDS011;21486;51.916;8.378;2023-04-06T04:46:09;22.10;;;11.43;;
35380;SDS011;21486;51.916;8.378;2023-04-06T04:48:34;22.40;;;10.50;;
35380;SDS011;21486;51.916;8.378;2023-04-06T04:51:00;24.73;;;11.23;;
35380;SDS011;21486;51.916;8.378;2023-04-06T04:53:26;26.63;;;11.38;;
35380;SDS011;21486;51.916;8.378;2023-04-06T04:55:51;20.08;;;11.57;;
35380;SDS011;21486;51.916;8.378;2023-04-06T04:58:17;27.00;;;11.50;;
35380;SDS011;21486;51.916;8.378;2023-04-06T05:00:44;18.55;;;10.85;;
35380;SDS011;21486;51.916;8.378;2023-04-06T05:03:14;25.13;;;11.00;;
35380;SDS011;21486;51.916;8.378;2023-04-06T05:05:45;21.93;;;11.70;;
35380;SDS011;21486;51.916;8.378;2023-04-06T05:08:11;21.70;;;11.37;;
35380;SDS011;21486;51.916;8.378;2023-04-06T05:10:37;24.17;;;11.68;;
35380;SDS011;21486;51.916;8.378;2023-04-06T05:13:02;29.20;;;11.27;;
35380;SDS011;21486;51.916;8.378;2023-04-06T05:15:28;22.57;;;11.13;;
35380;SDS011;21486;51.916;8.378;2023-04-06T05:17:54;30.03;;;11.93;;
35380;SDS011;21486;51.916;8.378;2023-04-06T05:20:19;22.40;;;11.93;;
35380;SDS011;21486;51.916;8.378;2023-04-06T05:22:45;24.55;;;12.25;;
35380;SDS011;21486;51.916;8.378;2023-04-06T05:25:12;27.67;;;12.00;;
35380;SDS011;21486;51.916;8.378;2023-04-06T05:27:38;28.75;;;12.18;;
35380;SDS011;21486;51.916;8.378;2023-04-06T05:30:05;26.45;;;12.30;;
35380;SDS011;21486;51.916;8.378;2023-04-06T05:32:32;29.15;;;12.32;;
35380;SDS011;21486;51.916;8.378;2023-04-06T05:34:57;19.35;;;11.43;;
35380;SDS011;21486;51.916;8.378;2023-04-06T05:37:23;27.20;;;10.90;;
35380;SDS011;21486;51.916;8.378;2023-04-06T05:39:49;27.35;;;12.32;;
35380;SDS011;21486;51.916;8.378;2023-04-06T05:42:14;25.13;;;11.75;;
35380;SDS011;21486;51.916;8.378;2023-04-06T05:44:40;24.15;;;12.00;;
35380;SDS011;21486;51.916;8.378;2023-04-06T05:47:06;20.40;;;10.73;;
35380;SDS011;21486;51.916;8.378;2023-04-06T05:49:32;23.27;;;11.27;;
35380;SDS011;21486;51.916;8.378;2023-04-06T05:51:57;21.47;;;10.50;;
35380;SDS011;21486;51.916;8.378;2023-04-06T05:54:23;23.03;;;11.03;;
35380;SDS011;21486;51.916;8.378;2023-04-06T05:56:49;19.07;;;10.80;;
35380;SDS011;21486;51.916;8.378;2023-04-06T05:59:14;22.00;;;10.70;;
35380;SDS011;21486;51.916;8.378;2023-04-06T06:01:40;23.07;;;12.33;;
35380;SDS011;21486;51.916;8.378;2023-04-06T06:04:06;24.27;;;11.23;;
35380;SDS011;21486;51.916;8.378;2023-04-06T06:06:31;22.67;;;10.97;;
35380;SDS011;21486;51.916;8.378;2023-04-06T06:08:57;19.83;;;11.17;;
35380;SDS011;21486;51.916;8.378;2023-04-06T06:11:25;20.92;;;10.85;;
35380;SDS011;21486;51.916;8.378;2023-04-06T06:13:51;19.10;;;10.37;;
35380;SDS011;21486;51.916;8.378;2023-04-06T06:16:17;19.37;;;10.23;;
35380;SDS011;21486;51.916;8.378;2023-04-06T06:18:43;19.02;;;9.90;;
35380;SDS011;21486;51.916;8.378;2023-04-06T06:21:08;18.08;;;9.70;;
35380;SDS011;21486;51.916;8.378;2023-04-06T06:23:36;16.48;;;9.27;;
35380;SDS011;21486;51.916;8.378;2023-04-06T06:26:01;15.15;;;8.90;;
35380;SDS011;21486;51.916;8.378;2023-04-06T06:28:27;17.23;;;9.90;;
35380;SDS011;21486;51.916;8.378;2023-04-06T06:30:52;16.07;;;9.37;;
35380;SDS011;21486;51.916;8.378;2023-04-06T06:33:18;19.37;;;9.43;;
35380;SDS011;21486;51.916;8.378;2023-04-06T06:35:44;15.60;;;8.80;;
35380;SDS011;21486;51.916;8.378;2023-04-06T06:38:09;16.57;;;9.00;;
35380;SDS011;21486;51.916;8.378;2023-04-06T06:40:35;14.77;;;9.10;;
35380;SDS011;21486;51.916;8.378;2023-04-06T06:43:00;16.42;;;9.00;;
35380;SDS011;21486;51.916;8.378;2023-04-06T06:45:26;17.38;;;8.80;;
35380;SDS011;21486;51.916;8.378;2023-04-06T06:47:51;16.15;;;9.02;;
35380;SDS011;21486;51.916;8.378;2023-04-06T06:50:17;14.87;;;9.10;;
35380;SDS011;21486;51.916;8.378;2023-04-06T06:52:42;13.80;;;9.00;;
35380;SDS011;21486;51.916;8.378;2023-04-06T06:55:09;22.10;;;8.87;;
35380;SDS011;21486;51.916;8.378;2023-04-06T06:57:35;15.93;;;9.48;;
35380;SDS011;21486;51.916;8.378;2023-04-06T07:00:01;23.60;;;9.82;;
35380;SDS011;21486;51.916;8.378;2023-04-06T07:02:26;21.33;;;9.55;;
35380;SDS011;21486;51.916;8.378;2023-04-06T07:04:52;15.70;;;9.45;;
35380;SDS011;21486;51.916;8.378;2023-04-06T07:07:17;19.30;;;9.23;;
35380;SDS011;21486;51.916;8.378;2023-04-06T07:09:43;17.77;;;9.40;;
35380;SDS011;21486;51.916;8.378;2023-04-06T07:12:08;18.70;;;9.47;;
35380;SDS011;21486;51.916;8.378;2023-04-06T07:14:34;15.88;;;8.45;;
35380;SDS011;21486;51.916;8.378;2023-04-06T07:17:01;15.63;;;8.73;;
35380;SDS011;21486;51.916;8.378;2023-04-06T07:19:27;16.23;;;9.00;;
35380;SDS011;21486;51.916;8.378;2023-04-06T07:21:52;20.30;;;8.67;;
35380;SDS011;21486;51.916;8.378;2023-04-06T07:24:18;14.02;;;8.57;;
35380;SDS011;21486;51.916;8.378;2023-04-06T07:26:43;15.85;;;8.43;;
35380;SDS011;21486;51.916;8.378;2023-04-06T07:29:09;16.02;;;9.02;;
35380;SDS011;21486;51.916;8.378;2023-04-06T07:31:34;19.87;;;8.33;;
35380;SDS011;21486;51.916;8.378;2023-04-06T07:34:01;17.20;;;8.55;;
35380;SDS011;21486;51.916;8.378;2023-04-06T07:36:26;13.52;;;8.10;;
35380;SDS011;21486;51.916;8.378;2023-04-06T07:38:52;14.18;;;8.15;;
35380;SDS011;21486;51.916;8.378;2023-04-06T07:41:17;14.25;;;8.23;;
35380;SDS011;21486;51.916;8.378;2023-04-06T07:43:43;14.02;;;7.28;;
35380;SDS011;21486;51.916;8.378;2023-04-06T07:46:08;14.20;;;8.03;;
35380;SDS011;21486;51.916;8.378;2023-04-06T07:48:34;14.87;;;7.83;;
35380;SDS011;21486;51.916;8.378;2023-04-06T07:51:00;12.60;;;7.57;;
35380;SDS011;21486;51.916;8.378;2023-04-06T07:53:27;13.50;;;7.55;;
35380;SDS011;21486;51.916;8.378;2023-04-06T07:55:53;25.63;;;9.13;;
35380;SDS011;21486;51.916;8.378;2023-04-06T07:58:18;14.63;;;8.18;;
35380;SDS011;21486;51.916;8.378;2023-04-06T08:00:44;14.40;;;7.40;;
35380;SDS011;21486;51.916;8.378;2023-04-06T08:03:09;11.77;;;7.27;;
35380;SDS011;21486;51.916;8.378;2023-04-06T08:05:35;14.63;;;7.93;;
35380;SDS011;21486;51.916;8.378;2023-04-06T08:08:00;16.70;;;7.63;;
35380;SDS011;21486;51.916;8.378;2023-04-06T08:10:26;13.30;;;7.70;;
35380;SDS011;21486;51.916;8.378;2023-04-06T08:12:52;13.07;;;7.20;;
35380;SDS011;21486;51.916;8.378;2023-04-06T08:15:17;15.65;;;7.30;;
35380;SDS011;21486;51.916;8.378;2023-04-06T08:17:43;12.77;;;7.77;;
35380;SDS011;21486;51.916;8.378;2023-04-06T08:20:08;11.47;;;7.50;;
35380;SDS011;21486;51.916;8.378;2023-04-06T08:22:34;15.13;;;7.60;;
35380;SDS011;21486;51.916;8.378;2023-04-06T08:25:00;11.57;;;7.67;;
35380;SDS011;21486;51.916;8.378;2023-04-06T08:27:25;13.95;;;7.43;;
35380;SDS011;21486;51.916;8.378;2023-04-06T08:29:51;12.80;;;7.13;;
35380;SDS011;21486;51.916;8.378;2023-04-06T08:32:16;26.93;;;9.10;;
35380;SDS011;21486;51.916;8.378;2023-04-06T08:34:42;14.63;;;7.70;;
35380;SDS011;21486;51.916;8.378;2023-04-06T08:37:07;13.88;;;7.95;;
35380;SDS011;21486;51.916;8.378;2023-04-06T08:39:33;13.23;;;7.47;;
35380;SDS011;21486;51.916;8.378;2023-04-06T08:41:59;14.13;;;7.73;;
35380;SDS011;21486;51.916;8.378;2023-04-06T08:44:27;15.27;;;7.78;;
35380;SDS011;21486;51.916;8.378;2023-04-06T08:46:57;13.40;;;7.47;;
35380;SDS011;21486;51.916;8.378;2023-04-06T08:49:24;11.05;;;6.95;;
35380;SDS011;21486;51.916;8.378;2023-04-06T08:51:50;13.60;;;7.82;;
35380;SDS011;21486;51.916;8.378;2023-04-06T08:54:16;10.25;;;7.70;;
35380;SDS011;21486;51.916;8.378;2023-04-06T08:56:41;12.73;;;7.70;;
35380;SDS011;21486;51.916;8.378;2023-04-06T08:59:08;14.10;;;7.93;;
35380;SDS011;21486;51.916;8.378;2023-04-06T09:01:36;14.23;;;8.23;;
35380;SDS011;21486;51.916;8.378;2023-04-06T09:04:06;16.48;;;7.63;;
35380;SDS011;21486;51.916;8.378;2023-04-06T09:06:35;11.45;;;7.20;;
35380;SDS011;21486;51.916;8.378;2023-04-06T09:09:02;12.63;;;8.00;;
35380;SDS011;21486;51.916;8.378;2023-04-06T09:11:27;15.20;;;8.40;;
35380;SDS011;21486;51.916;8.378;2023-04-06T09:13:54;13.47;;;7.87;;
35380;SDS011;21486;51.916;8.378;2023-04-06T09:16:21;13.45;;;7.43;;
35380;SDS011;21486;51.916;8.378;2023-04-06T09:18:48;14.05;;;7.93;;
35380;SDS011;21486;51.916;8.378;2023-04-06T09:21:16;14.02;;;7.93;;
35380;SDS011;21486;51.916;8.378;2023-04-06T09:23:43;15.10;;;8.10;;
35380;SDS011;21486;51.916;8.378;2023-04-06T09:28:48;15.05;;;7.82;;
35380;SDS011;21486;51.916;8.378;2023-04-06T09:31:23;12.60;;;8.43;;
35380;SDS011;21486;51.916;8.378;2023-04-06T09:33:52;14.35;;;7.95;;
35380;SDS011;21486;51.916;8.378;2023-04-06T09:36:18;17.83;;;8.43;;
35380;SDS011;21486;51.916;8.378;2023-04-06T09:38:52;16.60;;;8.10;;
35380;SDS011;21486;51.916;8.378;2023-04-06T09:41:26;12.38;;;8.07;;
35380;SDS011;21486;51.916;8.378;2023-04-06T09:44:03;12.55;;;8.35;;
35380;SDS011;21486;51.916;8.378;2023-04-06T09:46:31;15.77;;;9.35;;
35380;SDS011;21486;51.916;8.378;2023-04-06T09:49:03;14.50;;;8.48;;
35380;SDS011;21486;51.916;8.378;2023-04-06T09:51:30;15.05;;;8.15;;
35380;SDS011;21486;51.916;8.378;2023-04-06T09:54:00;14.38;;;8.40;;
35380;SDS011;21486;51.916;8.378;2023-04-06T09:56:30;15.77;;;9.00;;
35380;SDS011;21486;51.916;8.378;2023-04-06T09:59:02;15.33;;;9.20;;
35380;SDS011;21486;51.916;8.378;2023-04-06T10:01:33;16.30;;;9.65;;
35380;SDS011;21486;51.916;8.378;2023-04-06T10:04:13;14.67;;;10.00;;
35380;SDS011;21486;51.916;8.378;2023-04-06T10:06:52;19.80;;;10.43;;
35380;SDS011;21486;51.916;8.378;2023-04-06T10:09:18;16.90;;;9.27;;
35380;SDS011;21486;51.916;8.378;2023-04-06T10:11:50;17.73;;;9.50;;
35380;SDS011;21486;51.916;8.378;2023-04-06T10:14:16;17.25;;;10.32;;
35380;SDS011;21486;51.916;8.378;2023-04-06T10:16:42;15.85;;;9.60;;
35380;SDS011;21486;51.916;8.378;2023-04-06T10:19:17;16.38;;;9.73;;
35380;SDS011;21486;51.916;8.378;2023-04-06T10:21:47;16.80;;;10.20;;
35380;SDS011;21486;51.916;8.378;2023-04-06T10:24:15;17.33;;;10.35;;
35380;SDS011;21486;51.916;8.378;2023-04-06T10:26:42;15.60;;;10.37;;
35380;SDS011;21486;51.916;8.378;2023-04-06T10:29:07;18.27;;;10.43;;
35380;SDS011;21486;51.916;8.378;2023-04-06T10:31:39;19.20;;;11.02;;
35380;SDS011;21486;51.916;8.378;2023-04-06T10:34:08;18.38;;;10.70;;
35380;SDS011;21486;51.916;8.378;2023-04-06T10:36:34;16.67;;;10.83;;
35380;SDS011;21486;51.916;8.378;2023-04-06T10:39:00;17.60;;;11.25;;
35380;SDS011;21486;51.916;8.378;2023-04-06T10:41:32;18.25;;;11.70;;
35380;SDS011;21486;51.916;8.378;2023-04-06T10:43:58;20.50;;;11.43;;
35380;SDS011;21486;51.916;8.378;2023-04-06T10:46:26;21.70;;;12.10;;
35380;SDS011;21486;51.916;8.378;2023-04-06T10:48:53;18.73;;;11.98;;
35380;SDS011;21486;51.916;8.378;2023-04-06T10:51:19;17.90;;;11.45;;
35380;SDS011;21486;51.916;8.378;2023-04-06T10:53:51;22.37;;;13.03;;
35380;SDS011;21486;51.916;8.378;2023-04-06T10:56:20;21.08;;;12.18;;
35380;SDS011;21486;51.916;8.378;2023-04-06T10:58:48;20.27;;;12.30;;
35380;SDS011;21486;51.916;8.378;2023-04-06T11:01:16;20.13;;;12.68;;
35380;SDS011;21486;51.916;8.378;2023-04-06T11:03:47;18.65;;;11.85;;
35380;SDS011;21486;51.916;8.378;2023-04-06T11:06:20;22.73;;;12.38;;
35380;SDS011;21486;51.916;8.378;2023-04-06T11:08:46;23.63;;;12.38;;
35380;SDS011;21486;51.916;8.378;2023-04-06T11:11:14;17.95;;;11.27;;
35380;SDS011;21486;51.916;8.378;2023-04-06T11:13:44;21.02;;;11.93;;
35380;SDS011;21486;51.916;8.378;2023-04-06T11:16:14;17.85;;;11.90;;
35380;SDS011;21486;51.916;8.378;2023-04-06T11:21:17;18.88;;;11.98;;
35380;SDS011;21486;51.916;8.378;2023-04-06T11:23:43;17.88;;;11.88;;
35380;SDS011;21486;51.916;8.378;2023-04-06T11:26:12;15.97;;;10.37;;
35380;SDS011;21486;51.916;8.378;2023-04-06T11:28:39;16.93;;;10.33;;
35380;SDS011;21486;51.916;8.378;2023-04-06T11:31:06;19.93;;;11.10;;
35380;SDS011;21486;51.916;8.378;2023-04-06T11:33:37;16.83;;;11.43;;
35380;SDS011;21486;51.916;8.378;2023-04-06T11:36:03;18.10;;;11.40;;
35380;SDS011;21486;51.916;8.378;2023-04-06T11:38:30;21.63;;;11.75;;
35380;SDS011;21486;51.916;8.378;2023-04-06T11:40:55;16.15;;;10.45;;
35380;SDS011;21486;51.916;8.378;2023-04-06T11:43:28;18.65;;;9.80;;
35380;SDS011;21486;51.916;8.378;2023-04-06T11:46:02;16.55;;;10.15;;
35380;SDS011;21486;51.916;8.378;2023-04-06T11:48:28;16.63;;;10.77;;
35380;SDS011;21486;51.916;8.378;2023-04-06T11:50:57;14.68;;;9.80;;
35380;SDS011;21486;51.916;8.378;2023-04-06T11:53:26;18.83;;;10.80;;
35380;SDS011;21486;51.916;8.378;2023-04-06T11:55:52;17.83;;;10.80;;
35380;SDS011;21486;51.916;8.378;2023-04-06T11:58:18;19.03;;;10.77;;
35380;SDS011;21486;51.916;8.378;2023-04-06T12:00:44;16.67;;;11.40;;
35380;SDS011;21486;51.916;8.378;2023-04-06T12:03:11;17.73;;;10.90;;
35380;SDS011;21486;51.916;8.378;2023-04-06T12:05:36;18.83;;;11.73;;
35380;SDS011;21486;51.916;8.378;2023-04-06T12:08:02;18.08;;;11.48;;
35380;SDS011;21486;51.916;8.378;2023-04-06T12:10:28;20.43;;;10.93;;
35380;SDS011;21486;51.916;8.378;2023-04-06T12:12:54;18.07;;;10.40;;
35380;SDS011;21486;51.916;8.378;2023-04-06T12:15:19;16.33;;;10.60;;
35380;SDS011;21486;51.916;8.378;2023-04-06T12:17:45;17.63;;;9.90;;
35380;SDS011;21486;51.916;8.378;2023-04-06T12:20:11;14.57;;;9.23;;
35380;SDS011;21486;51.916;8.378;2023-04-06T12:22:36;15.95;;;10.00;;
35380;SDS011;21486;51.916;8.378;2023-04-06T12:25:02;19.40;;;10.02;;
35380;SDS011;21486;51.916;8.378;2023-04-06T12:27:28;14.70;;;10.05;;
35380;SDS011;21486;51.916;8.378;2023-04-06T12:29:53;14.97;;;9.70;;
35380;SDS011;21486;51.916;8.378;2023-04-06T12:32:19;14.80;;;9.15;;
35380;SDS011;21486;51.916;8.378;2023-04-06T12:34:44;13.73;;;8.83;;
35380;SDS011;21486;51.916;8.378;2023-04-06T12:37:10;17.30;;;9.03;;
35380;SDS011;21486;51.916;8.378;2023-04-06T12:39:35;16.67;;;10.37;;
35380;SDS011;21486;51.916;8.378;2023-04-06T12:42:01;17.40;;;10.07;;
35380;SDS011;21486;51.916;8.378;2023-04-06T12:44:27;18.63;;;10.50;;
35380;SDS011;21486;51.916;8.378;2023-04-06T12:46:53;18.10;;;10.55;;
35380;SDS011;21486;51.916;8.378;2023-04-06T12:49:20;20.40;;;10.60;;
35380;SDS011;21486;51.916;8.378;2023-04-06T12:51:46;16.02;;;9.35;;
35380;SDS011;21486;51.916;8.378;2023-04-06T12:54:12;17.23;;;10.63;;
35380;SDS011;21486;51.916;8.378;2023-04-06T12:56:38;21.70;;;10.80;;
35380;SDS011;21486;51.916;8.378;2023-04-06T12:59:04;19.67;;;12.15;;
35380;SDS011;21486;51.916;8.378;2023-04-06T13:01:30;18.77;;;9.90;;
35380;SDS011;21486;51.916;8.378;2023-04-06T13:03:56;18.03;;;11.20;;
35380;SDS011;21486;51.916;8.378;2023-04-06T13:06:22;19.35;;;11.05;;
35380;SDS011;21486;51.916;8.378;2023-04-06T13:08:52;19.38;;;11.40;;
35380;SDS011;21486;51.916;8.378;2023-04-06T13:11:17;18.38;;;10.98;;
35380;SDS011;21486;51.916;8.378;2023-04-06T13:13:45;19.80;;;11.67;;
35380;SDS011;21486;51.916;8.378;2023-04-06T13:16:10;17.73;;;11.10;;
35380;SDS011;21486;51.916;8.378;2023-04-06T13:18:36;18.77;;;11.38;;
35380;SDS011;21486;51.916;8.378;2023-04-06T13:21:03;23.15;;;11.35;;
35380;SDS011;21486;51.916;8.378;2023-04-06T13:23:31;20.20;;;12.60;;
35380;SDS011;21486;51.916;8.378;2023-04-06T13:26:06;19.65;;;12.10;;
35380;SDS011;21486;51.916;8.378;2023-04-06T13:28:33;21.98;;;12.18;;
35380;SDS011;21486;51.916;8.378;2023-04-06T13:31:00;19.80;;;11.75;;
35380;SDS011;21486;51.916;8.378;2023-04-06T13:33:26;19.30;;;11.63;;
35380;SDS011;21486;51.916;8.378;2023-04-06T13:35:53;18.45;;;11.57;;
35380;SDS011;21486;51.916;8.378;2023-04-06T13:38:18;20.07;;;11.93;;
35380;SDS011;21486;51.916;8.378;2023-04-06T13:40:44;18.63;;;11.70;;
35380;SDS011;21486;51.916;8.378;2023-04-06T13:43:10;18.23;;;12.17;;
35380;SDS011;21486;51.916;8.378;2023-04-06T13:45:36;21.77;;;12.90;;
35380;SDS011;21486;51.916;8.378;2023-04-06T13:48:02;22.05;;;12.93;;
35380;SDS011;21486;51.916;8.378;2023-04-06T13:50:28;20.83;;;13.15;;
35380;SDS011;21486;51.916;8.378;2023-04-06T13:52:54;20.58;;;12.85;;
35380;SDS011;21486;51.916;8.378;2023-04-06T13:55:20;21.83;;;12.80;;
35380;SDS011;21486;51.916;8.378;2023-04-06T13:57:46;30.02;;;17.95;;
35380;SDS011;21486;51.916;8.378;2023-04-06T14:00:12;22.77;;;13.07;;
35380;SDS011;21486;51.916;8.378;2023-04-06T14:02:39;24.65;;;13.82;;
35380;SDS011;21486;51.916;8.378;2023-04-06T14:05:05;20.42;;;13.13;;
35380;SDS011;21486;51.916;8.378;2023-04-06T14:07:31;21.38;;;13.23;;
35380;SDS011;21486;51.916;8.378;2023-04-06T14:09:56;24.53;;;13.37;;
35380;SDS011;21486;51.916;8.378;2023-04-06T14:12:22;23.00;;;13.05;;
35380;SDS011;21486;51.916;8.378;2023-04-06T14:14:47;25.48;;;13.48;;
35380;SDS011;21486;51.916;8.378;2023-04-06T14:17:13;23.37;;;13.73;;
35380;SDS011;21486;51.916;8.378;2023-04-06T14:19:38;22.58;;;14.40;;
35380;SDS011;21486;51.916;8.378;2023-04-06T14:22:04;24.73;;;13.57;;
35380;SDS011;21486;51.916;8.378;2023-04-06T14:24:30;27.27;;;16.15;;
35380;SDS011;21486;51.916;8.378;2023-04-06T14:26:56;37.25;;;21.20;;
35380;SDS011;21486;51.916;8.378;2023-04-06T14:29:22;26.00;;;14.73;;
35380;SDS011;21486;51.916;8.378;2023-04-06T14:31:48;22.70;;;13.70;;